Time;durP1;ratioP1;P1;durP2;ratioP2;P2;SDS_P1;SDS_P2;PMS_P1;PMS_P2;Temp;Humidity;BMP_temperature;BMP_pressure;BME280_temperature;BME280_humidity;BME280_pressure;Samples;Min_cycle;Max_cycle;Signal;HPM_P1;HPM_P2
2022/08/24 00:00:22;;;;;;;8.05;4.03;;;;;;;25.27;51.34;101293.33;2337356;75;51505;-76
2022/08/24 00:03:25;;;;;;;9.75;4.15;;;;;;;25.28;51.35;101291.45;2362681;75;50638;-75
2022/08/24 00:06:27;;;;;;;7.40;3.80;;;;;;;25.26;51.29;101288.97;2337078;75;49640;-74
2022/08/24 00:09:30;;;;;;;9.20;3.77;;;;;;;25.26;51.28;101293.03;2362717;75;50242;-75
2022/08/24 00:12:33;;;;;;;8.83;4.08;;;;;;;25.27;51.28;101304.70;2362627;73;50275;-75
2022/08/24 00:15:35;;;;;;;6.17;3.77;;;;;;;25.26;51.30;101300.33;2337433;75;50357;-76
2022/08/24 00:18:38;;;;;;;5.90;3.17;;;;;;;25.26;51.28;101294.91;2362392;75;50769;-76
2022/08/24 00:21:40;;;;;;;5.72;3.30;;;;;;;25.26;51.26;101297.09;2376989;74;52955;-76
2022/08/24 00:24:43;;;;;;;6.53;3.60;;;;;;;25.25;51.25;101292.70;2353218;73;51550;-77
2022/08/24 00:27:45;;;;;;;5.65;3.25;;;;;;;25.25;51.25;101291.35;2361357;75;51517;-73
2022/08/24 00:30:47;;;;;;;4.87;3.22;;;;;;;25.24;51.24;101299.17;2302421;75;51841;-74
2022/08/24 00:33:49;;;;;;;7.05;3.33;;;;;;;25.23;51.23;101302.94;2337520;75;52060;-75
2022/08/24 00:36:52;;;;;;;7.55;3.58;;;;;;;25.25;51.19;101306.78;2362321;74;51529;-74
2022/08/24 00:39:54;;;;;;;4.78;3.25;;;;;;;25.25;51.17;101300.00;2337536;75;51444;-75
2022/08/24 00:43:02;;;;;;;6.80;3.30;;;;;;;25.24;51.18;101304.59;2362608;75;50649;-75
2022/08/24 00:46:10;;;;;;;7.50;2.95;;;;;;;25.24;51.15;101298.35;2337266;75;22303;-75
2022/08/24 00:49:21;;;;;;;4.58;2.80;;;;;;;25.23;51.15;101298.02;2362711;75;50778;-75
2022/08/24 00:52:30;;;;;;;5.05;2.87;;;;;;;25.22;51.16;101305.85;2337343;75;52719;-74
2022/08/24 00:55:38;;;;;;;5.33;3.02;;;;;;;25.23;51.12;101300.23;2349625;74;49659;-75
2022/08/24 00:58:44;;;;;;;5.03;3.25;;;;;;;25.22;51.15;101293.13;2361987;74;51497;-74
2022/08/24 01:01:46;;;;;;;6.62;2.98;;;;;;;25.23;51.15;101306.15;2362658;74;51534;-75
2022/08/24 01:04:55;;;;;;;6.97;2.87;;;;;;;25.22;51.12;101301.79;2362861;75;50382;-74
2022/08/24 01:07:57;;;;;;;4.42;2.75;;;;;;;25.21;51.13;101300.96;2362427;75;50764;-75
2022/08/24 01:11:03;;;;;;;5.97;3.30;;;;;;;25.22;51.10;101304.50;2350170;75;49193;-74
2022/08/24 01:14:04;;;;;;;;;;;;;;;25.21;51.11;101303.67;2365519;74;50756;-75
2022/08/24 01:20:27;;;;;;;6.75;2.60;;;;;;;25.21;51.13;101302.31;2362940;74;22293;-75
2022/08/24 01:23:35;;;;;;;2.92;2.47;;;;;;;25.19;51.15;101303.88;2363246;72;51368;-74
2022/08/24 01:26:40;;;;;;;5.10;2.90;;;;;;;25.18;51.13;101309.52;2374621;74;51609;-75
2022/08/24 01:29:42;;;;;;;5.78;2.77;;;;;;;25.19;51.09;101303.05;2366873;75;50414;-74
2022/08/24 01:32:58;;;;;;;3.37;2.50;;;;;;;25.19;51.10;101305.22;2366439;75;51529;-74
2022/08/24 01:36:07;;;;;;;5.85;3.20;;;;;;;25.19;51.08;101307.11;2372646;72;50831;-75
2022/08/24 01:39:23;;;;;;;6.30;2.72;;;;;;;25.17;51.08;101304.59;2384256;74;51723;-75
2022/08/24 01:42:28;;;;;;;5.55;2.70;;;;;;;25.17;51.01;101314.60;2404053;74;51624;-75
2022/08/24 01:45:30;;;;;;;4.08;2.80;;;;;;;25.18;51.02;101311.70;2404234;74;24987;-74
2022/08/24 01:48:32;;;;;;;5.08;2.77;;;;;;;25.18;51.02;101315.76;2376679;74;50334;-75
2022/08/24 01:51:34;;;;;;;3.92;2.77;;;;;;;25.16;51.03;101304.30;2378556;74;50372;-75
2022/08/24 01:54:37;;;;;;;4.72;3.05;;;;;;;25.17;51.03;101310.55;2378474;74;50610;-74
2022/08/24 01:57:39;;;;;;;3.02;2.40;;;;;;;25.16;51.03;101307.00;2403868;74;50281;-73
2022/08/24 02:00:42;;;;;;;5.55;2.65;;;;;;;25.17;51.02;101312.72;2378345;74;50367;-73
2022/08/24 02:03:44;;;;;;;5.37;2.67;;;;;;;25.17;51.05;101315.42;2378338;74;50679;-73
2022/08/24 02:06:46;;;;;;;4.40;2.50;;;;;;;25.19;51.00;101317.94;2392326;73;51535;-73
2022/08/24 02:09:48;;;;;;;5.92;3.47;;;;;;;25.17;51.06;101312.72;2363593;75;51483;-73
2022/08/24 02:13:00;;;;;;;6.33;4.20;;;;;;;25.18;51.01;101320.35;2362772;75;51511;-73
2022/08/24 02:15:54;;;;;;;5.55;3.80;;;;;;;25.18;51.05;101327.12;2359364;74;22267;-73
2022/08/24 02:18:57;;;;;;;7.95;4.33;;;;;;;25.17;51.03;101331.68;2305911;74;51050;-76
2022/08/24 02:21:59;;;;;;;7.03;4.70;;;;;;;25.16;51.09;101328.67;2364567;75;51528;-72
2022/08/24 02:25:01;;;;;;;6.33;4.35;;;;;;;25.17;51.10;101325.44;2370980;72;51635;-73
2022/08/24 02:28:04;;;;;;;8.48;5.12;;;;;;;25.15;51.08;101321.57;2371380;74;51391;-73
2022/08/24 02:31:06;;;;;;;6.95;4.15;;;;;;;25.15;51.13;101317.51;2402423;74;51451;-73
2022/08/24 02:34:08;;;;;;;7.37;4.42;;;;;;;25.16;51.12;101326.48;2376551;74;49605;-74
2022/08/24 02:37:11;;;;;;;6.95;4.08;;;;;;;25.16;51.14;101327.84;2375107;74;49667;-74
2022/08/24 02:40:13;;;;;;;7.83;3.92;;;;;;;25.15;51.13;101326.13;2376911;74;51614;-73
2022/08/24 02:43:15;;;;;;;8.15;4.78;;;;;;;25.16;51.06;101320.55;2351863;74;51764;-71
2022/08/24 02:46:19;;;;;;;6.60;4.25;;;;;;;25.15;51.04;101318.86;2405185;74;50608;-74
2022/08/24 02:49:22;;;;;;;6.80;4.40;;;;;;;25.15;51.06;101317.51;2402887;74;50713;-74
2022/08/24 02:52:24;;;;;;;6.47;4.25;;;;;;;25.16;51.06;101323.78;2375359;74;49951;-74
2022/08/24 02:55:26;;;;;;;6.83;4.20;;;;;;;25.14;51.09;101319.06;2352184;75;52415;-73
2022/08/24 02:58:28;;;;;;;6.25;4.67;;;;;;;25.13;51.07;101312.82;2309320;75;50061;-73
2022/08/24 03:01:31;;;;;;;7.70;4.65;;;;;;;25.14;51.04;101305.52;2335934;75;51856;-75
2022/08/24 03:04:33;;;;;;;9.53;6.35;;;;;;;25.15;51.05;101308.03;2361404;75;50237;-74
2022/08/24 03:07:35;;;;;;;8.75;5.95;;;;;;;25.15;51.07;101312.59;2310790;75;51796;-74
2022/08/24 03:10:38;;;;;;;7.28;5.33;;;;;;;25.15;51.10;101312.59;2335832;75;50617;-76
2022/08/24 03:13:40;;;;;;;8.68;5.42;;;;;;;25.14;51.13;101321.77;2335869;75;52433;-76
2022/08/24 03:16:43;;;;;;;9.08;5.70;;;;;;;25.13;51.20;101305.22;2335144;75;50027;-74
2022/08/24 03:19:45;;;;;;;8.43;5.75;;;;;;;25.14;51.18;101308.23;2362411;74;49730;-74
2022/08/24 03:22:47;;;;;;;8.88;6.08;;;;;;;25.14;51.17;101310.94;2335457;75;49547;-73
2022/08/24 03:25:50;;;;;;;10.40;6.30;;;;;;;25.14;51.17;101312.29;2373198;74;50640;-73
2022/08/24 03:28:53;;;;;;;7.67;5.90;;;;;;;25.14;51.09;101309.58;2378705;74;50142;-75
2022/08/24 03:31:56;;;;;;;9.15;6.55;;;;;;;25.16;51.13;101311.59;2378349;74;51582;-75
2022/08/24 03:34:58;;;;;;;10.23;6.40;;;;;;;25.15;51.17;101314.80;2378829;74;50765;-74
2022/08/24 03:38:00;;;;;;;9.33;6.58;;;;;;;25.13;51.17;101311.47;2378151;74;50241;-74
2022/08/24 03:41:02;;;;;;;10.03;6.50;;;;;;;25.13;51.14;101310.64;2406350;74;50380;-74
2022/08/24 03:44:05;;;;;;;10.68;7.30;;;;;;;25.13;51.16;101316.05;2378441;74;50052;-76
2022/08/24 03:47:12;;;;;;;10.23;7.30;;;;;;;25.12;51.19;101308.95;2404160;72;51313;-73
2022/08/24 03:50:11;;;;;;;10.90;7.00;;;;;;;25.14;51.18;101308.23;2404444;74;23117;-74
2022/08/24 03:53:14;;;;;;;10.80;7.17;;;;;;;25.13;51.24;101318.77;2403069;74;50703;-74
2022/08/24 03:56:17;;;;;;;11.20;6.85;;;;;;;25.12;51.24;101322.50;2327889;75;49700;-75
2022/08/24 03:59:19;;;;;;;9.65;7.37;;;;;;;25.12;51.22;101319.78;2362654;75;51555;-75
2022/08/24 04:02:21;;;;;;;12.82;7.72;;;;;;;25.13;51.18;101320.94;2362765;75;50224;-76
2022/08/24 04:05:24;;;;;;;15.55;7.97;;;;;;;25.12;51.21;101322.50;2337524;75;50427;-75
2022/08/24 04:08:26;;;;;;;11.30;7.87;;;;;;;25.12;51.17;101327.38;2364430;75;50719;-75
2022/08/24 04:11:29;;;;;;;12.37;8.28;;;;;;;25.12;51.21;101328.73;2337320;75;51038;-75
2022/08/24 04:14:31;;;;;;;11.90;7.65;;;;;;;25.12;51.23;101338.74;2364591;75;51578;-76
2022/08/24 04:17:33;;;;;;;12.10;8.38;;;;;;;25.12;51.28;101336.86;2337228;75;51641;-74
2022/08/24 04:20:42;;;;;;;12.78;8.75;;;;;;;25.13;51.29;101337.72;2337424;73;50924;-75
2022/08/24 04:23:44;;;;;;;11.43;8.45;;;;;;;25.13;51.30;101337.72;2366462;74;51571;-76
2022/08/24 04:26:47;;;;;;;12.45;8.48;;;;;;;25.13;51.32;101345.84;2394510;74;51505;-75
2022/08/24 04:29:49;;;;;;;13.25;9.50;;;;;;;25.13;51.34;101347.20;2378225;74;50332;-75
2022/08/24 04:32:52;;;;;;;11.05;8.38;;;;;;;25.11;51.39;101345.22;2404077;72;50753;-76
2022/08/24 04:35:54;;;;;;;9.50;8.03;;;;;;;25.11;51.39;101342.51;2349704;74;50937;-74
2022/08/24 04:38:56;;;;;;;15.63;8.88;;;;;;;25.10;51.37;101348.95;2378432;74;51460;-74
2022/08/24 04:41:58;;;;;;;14.13;9.23;;;;;;;25.12;51.31;101350.93;2378483;74;50759;-74
2022/08/24 04:45:01;;;;;;;13.78;9.15;;;;;;;25.13;51.33;101349.91;2351327;74;50938;-73
2022/08/24 04:48:03;;;;;;;15.48;9.60;;;;;;;25.11;51.35;101350.62;2376638;74;51411;-73
2022/08/24 04:51:06;;;;;;;16.48;10.13;;;;;;;25.11;51.35;101350.62;2378319;74;51538;-74
2022/08/24 04:54:08;;;;;;;14.53;9.70;;;;;;;25.12;51.37;101350.93;2365363;73;50419;-74
2022/08/24 04:57:10;;;;;;;16.23;10.45;;;;;;;25.13;51.40;101353.97;2385014;74;50383;-74
2022/08/24 05:00:13;;;;;;;17.07;11.05;;;;;;;25.13;51.46;101349.38;2378214;73;49871;-74
2022/08/24 05:03:15;;;;;;;15.53;11.05;;;;;;;25.13;51.54;101352.09;2378324;74;51521;-73
2022/08/24 05:06:18;;;;;;;15.40;10.98;;;;;;;25.13;51.57;101356.15;2403763;74;51407;-72
2022/08/24 05:09:20;;;;;;;16.32;10.88;;;;;;;25.14;51.61;101359.69;2378057;74;49576;-72
2022/08/24 05:12:23;;;;;;;17.02;10.80;;;;;;;25.12;51.72;101363.12;2378335;74;50640;-72
2022/08/24 05:15:25;;;;;;;21.15;11.05;;;;;;;25.13;51.80;101364.80;2406076;72;52411;-73
2022/08/24 05:18:32;;;;;;;16.23;11.35;;;;;;;25.13;51.83;101368.34;2377768;74;52203;-72
2022/08/24 05:21:34;;;;;;;20.62;11.65;;;;;;;25.13;51.85;101374.28;2406194;74;22361;-73
2022/08/24 05:24:36;;;;;;;19.98;12.18;;;;;;;25.14;51.93;101375.94;2359545;74;51254;-73
2022/08/24 05:27:39;;;;;;;19.42;11.00;;;;;;;25.16;51.97;101375.23;2388932;73;51569;-73
2022/08/24 05:30:41;;;;;;;17.70;11.65;;;;;;;25.19;52.05;101381.59;2380207;73;50313;-73
2022/08/24 05:33:43;;;;;;;17.17;10.70;;;;;;;25.19;52.52;101384.30;2349451;73;51154;-74
2022/08/24 05:36:45;;;;;;;16.48;11.30;;;;;;;25.22;52.54;101378.45;2416129;73;50205;-72
2022/08/24 05:39:48;;;;;;;16.55;11.10;;;;;;;25.26;52.34;101383.77;2380166;73;50549;-72
2022/08/24 05:42:50;;;;;;;20.37;11.63;;;;;;;25.34;52.29;101378.13;2380338;73;50538;-72
2022/08/24 05:45:52;;;;;;;20.17;11.78;;;;;;;25.39;52.14;101382.40;2380206;73;50754;-73
2022/08/24 05:48:55;;;;;;;17.32;11.35;;;;;;;25.41;52.05;101384.38;2379767;73;52823;-73
2022/08/24 05:51:57;;;;;;;14.85;10.98;;;;;;;25.47;51.98;101387.29;2378537;73;51591;-73
2022/08/24 05:55:00;;;;;;;21.23;11.40;;;;;;;25.47;51.96;101385.94;2399947;73;50551;-73
2022/08/24 05:58:02;;;;;;;22.22;12.18;;;;;;;25.46;52.04;101393.23;2337282;75;49558;-73
2022/08/24 06:01:15;;;;;;;17.50;11.40;;;;;;;25.46;52.05;101393.73;2336192;75;50035;-73
2022/08/24 06:04:18;;;;;;;16.37;11.70;;;;;;;25.47;52.12;101396.77;2362302;75;51636;-72
2022/08/24 06:07:21;;;;;;;14.85;10.85;;;;;;;25.42;52.14;101400.11;2345483;74;50732;-73
2022/08/24 06:10:23;;;;;;;17.32;11.45;;;;;;;25.38;52.18;101390.23;2378377;74;51494;-73
2022/08/24 06:13:25;;;;;;;16.77;10.82;;;;;;;25.37;52.13;101398.02;2348118;74;51169;-73
2022/08/24 06:16:28;;;;;;;21.80;11.97;;;;;;;25.35;52.11;101393.33;2376561;74;51870;-73
2022/08/24 06:19:30;;;;;;;15.95;10.38;;;;;;;25.34;52.12;101398.45;2378530;74;51420;-75
2022/08/24 06:22:32;;;;;;;18.20;11.73;;;;;;;25.32;52.07;101393.76;2348195;74;51529;-74
2022/08/24 06:28:56;;;;;;;16.37;11.53;;;;;;;25.31;51.99;101395.34;2402407;74;22776;-73
2022/08/24 06:31:58;;;;;;;16.30;11.78;;;;;;;25.30;51.97;101409.38;2376239;74;51641;-73
2022/08/24 06:35:01;;;;;;;19.17;12.03;;;;;;;25.30;51.95;101403.97;2374871;74;51542;-73
2022/08/24 06:38:03;;;;;;;15.65;11.53;;;;;;;25.30;51.93;101403.97;2375691;74;50792;-73
2022/08/24 06:41:06;;;;;;;17.42;11.45;;;;;;;25.30;52.24;101406.67;2372920;74;50361;-73
2022/08/24 06:44:08;;;;;;;18.90;12.10;;;;;;;25.30;52.40;101409.91;2369888;73;50664;-74
2022/08/24 06:47:11;;;;;;;18.10;12.63;;;;;;;25.29;52.42;101417.21;2352810;73;49572;-74
2022/08/24 06:50:13;;;;;;;21.12;12.05;;;;;;;25.30;52.46;101416.69;2377180;74;50749;-74
2022/08/24 06:53:15;;;;;;;19.77;12.37;;;;;;;25.29;52.52;101417.73;2379478;72;50940;-74
2022/08/24 06:56:18;;;;;;;15.18;11.05;;;;;;;25.28;52.58;101419.62;2381094;73;51477;-74
2022/08/24 06:59:20;;;;;;;17.65;10.68;;;;;;;25.28;52.59;101416.91;2337394;75;52025;-75
2022/08/24 07:02:22;;;;;;;14.65;11.20;;;;;;;25.30;52.65;101420.75;2362616;75;51496;-75
2022/08/24 07:05:25;;;;;;;15.40;11.50;;;;;;;25.29;52.63;101428.05;2352436;73;50039;-73
2022/08/24 07:08:27;;;;;;;14.25;10.72;;;;;;;25.29;52.52;101428.57;2359385;74;51495;-74
2022/08/24 07:11:31;;;;;;;15.98;10.78;;;;;;;25.28;52.51;101433.16;2376228;73;50098;-74
2022/08/24 07:14:33;;;;;;;14.90;11.03;;;;;;;25.28;52.66;101439.08;2380434;73;51597;-73
2022/08/24 07:17:35;;;;;;;21.15;11.45;;;;;;;25.29;52.58;101423.16;2378084;74;51385;-73
2022/08/24 07:20:38;;;;;;;15.55;11.28;;;;;;;25.28;52.70;101422.33;2350123;74;50757;-72
2022/08/24 07:23:40;;;;;;;18.57;11.08;;;;;;;25.28;52.77;101430.45;2366186;73;54065;-72
2022/08/24 07:26:42;;;;;;;15.38;11.35;;;;;;;25.29;52.87;101428.05;2381105;73;50373;-72
2022/08/24 07:29:45;;;;;;;14.07;10.53;;;;;;;25.29;52.76;101427.22;2392639;74;51502;-74
2022/08/24 07:32:47;;;;;;;13.98;10.72;;;;;;;25.29;52.77;101423.98;2362732;75;51575;-74
2022/08/24 07:35:49;;;;;;;13.28;9.23;;;;;;;25.28;52.86;101430.45;2362794;74;50590;-76
2022/08/24 07:38:51;;;;;;;13.10;9.55;;;;;;;25.28;52.95;101429.59;2336037;75;51472;-74
2022/08/24 07:41:53;;;;;;;14.50;9.45;;;;;;;25.28;52.99;101435.88;2362693;75;50696;-74
2022/08/24 07:44:56;;;;;;;12.25;8.80;;;;;;;25.28;52.85;101437.23;2337379;75;50949;-73
2022/08/24 07:47:58;;;;;;;12.20;9.13;;;;;;;25.27;52.92;101434.19;2362427;74;50699;-75
2022/08/24 07:51:08;;;;;;;12.25;8.83;;;;;;;25.26;53.05;101440.66;2362863;75;50157;-74
2022/08/24 07:54:12;;;;;;;11.03;8.63;;;;;;;25.25;53.00;101438.15;2335390;75;50055;-75
2022/08/24 07:57:14;;;;;;;12.10;8.48;;;;;;;25.28;52.93;101439.94;2360963;74;51515;-72
2022/08/24 08:00:22;;;;;;;12.50;9.05;;;;;;;25.28;53.02;101439.94;2375960;74;51464;-72
2022/08/24 08:03:23;;;;;;;14.15;8.50;;;;;;;25.28;52.95;101441.30;2376053;74;22374;-73
2022/08/24 08:06:26;;;;;;;14.55;8.85;;;;;;;25.31;52.93;101447.64;2401707;74;51514;-74
2022/08/24 08:09:28;;;;;;;15.40;8.43;;;;;;;25.32;53.13;101449.30;2371280;74;52573;-74
2022/08/24 08:12:30;;;;;;;13.43;8.48;;;;;;;25.34;53.02;101455.88;2362504;74;50258;-74
2022/08/24 08:15:32;;;;;;;14.07;8.58;;;;;;;25.41;53.62;101456.70;2385667;74;50757;-74
2022/08/24 08:18:34;;;;;;;11.22;8.23;;;;;;;25.44;53.56;101451.39;2362211;74;50990;-74
2022/08/24 08:25:06;;;;;;;9.48;8.18;;;;;;;25.38;53.40;101453.89;2381714;74;22443;-74
2022/08/24 08:28:09;;;;;;;13.07;8.20;;;;;;;25.41;53.53;101446.70;2335123;75;51628;-74
2022/08/24 08:31:11;;;;;;;8.80;7.40;;;;;;;25.39;53.55;101444.72;2362692;74;51537;-75
2022/08/24 08:34:13;;;;;;;12.20;8.00;;;;;;;25.37;53.43;101442.73;2337340;74;51276;-73
2022/08/24 08:37:16;;;;;;;13.03;8.13;;;;;;;25.41;53.50;101449.41;2359166;74;51495;-73
2022/08/24 08:40:36;;;;;;;12.90;7.12;;;;;;;25.43;53.58;101453.24;2320544;75;50451;-74
2022/08/24 08:43:42;;;;;;;11.40;8.15;;;;;;;25.42;53.52;101459.19;2322131;75;50104;-75
2022/08/24 08:47:02;;;;;;;13.22;8.38;;;;;;;25.44;53.53;101460.87;2403279;73;50740;-74
2022/08/24 08:50:25;;;;;;;12.53;8.10;;;;;;;25.41;53.52;101462.95;2414017;73;51532;-75
2022/08/24 08:53:46;;;;;;;9.83;8.08;;;;;;;25.40;53.51;101465.33;2329708;73;51548;-75
2022/08/24 08:57:16;;;;;;;12.63;8.50;;;;;;;25.39;53.53;101470.45;2380727;74;51542;-73
2022/08/24 09:00:25;;;;;;;10.38;8.40;;;;;;;25.40;53.54;101468.04;2401956;74;50962;-73
2022/08/24 09:03:45;;;;;;;11.22;8.20;;;;;;;25.40;53.61;101469.92;2402058;74;51524;-74
2022/08/24 09:07:03;;;;;;;11.78;8.18;;;;;;;25.37;53.68;101472.53;2401844;74;50385;-74
2022/08/24 09:10:28;;;;;;;11.75;7.87;;;;;;;25.39;53.63;101475.88;2401943;74;50440;-73
2022/08/24 09:13:43;;;;;;;13.43;8.45;;;;;;;25.37;53.69;101477.95;2396645;72;51640;-73
2022/08/24 09:17:13;;;;;;;13.75;8.50;;;;;;;25.37;53.70;101475.23;2366528;74;50448;-73
2022/08/24 09:20:49;;;;;;;10.32;7.95;;;;;;;25.38;53.69;101471.51;2362590;75;51370;-73
2022/08/24 09:24:12;;;;;;;11.85;8.45;;;;;;;25.38;53.62;101468.80;2287095;77;51713;-73
2022/08/24 09:27:36;;;;;;;12.78;7.97;;;;;;;25.38;53.57;101470.16;2261460;77;51033;-73
2022/08/24 09:30:59;;;;;;;11.45;7.90;;;;;;;25.38;53.58;101476.92;2286995;77;51633;-73
2022/08/24 09:34:05;;;;;;;12.65;7.47;;;;;;;25.36;53.63;101473.58;2286594;77;51870;-75
2022/08/24 09:37:19;;;;;;;10.85;8.08;;;;;;;25.37;53.62;101476.59;2261175;77;49599;-73
2022/08/24 09:40:41;;;;;;;11.60;8.00;;;;;;;25.36;53.63;101480.36;2285096;77;51443;-73
2022/08/24 09:43:56;;;;;;;12.43;7.83;;;;;;;25.38;53.57;101479.64;2287021;76;51475;-73
2022/08/24 09:47:19;;;;;;;10.98;7.92;;;;;;;25.37;53.64;101476.59;2226035;77;50271;-72
2022/08/24 09:50:25;;;;;;;15.08;8.28;;;;;;;25.40;53.67;101473.45;2286846;77;51544;-72
2022/08/24 09:53:46;;;;;;;9.30;7.35;;;;;;;25.41;53.71;101467.02;2265449;74;51222;-73
2022/08/24 09:57:03;;;;;;;10.45;7.75;;;;;;;25.42;53.72;101467.84;2390101;74;50695;-73
2022/08/24 10:00:26;;;;;;;11.28;8.33;;;;;;;25.41;53.67;101468.38;2404047;74;50408;-75
2022/08/24 10:03:38;;;;;;;10.48;7.95;;;;;;;25.41;53.69;101471.08;2378007;74;52463;-73
2022/08/24 10:07:00;;;;;;;10.55;7.87;;;;;;;25.42;53.64;101467.32;2403454;74;51646;-74
2022/08/24 10:10:22;;;;;;;12.23;7.87;;;;;;;25.44;53.64;101469.00;2404055;74;50675;-74
2022/08/24 10:13:46;;;;;;;12.18;8.83;;;;;;;25.42;53.66;101467.84;2403966;74;50383;-73
2022/08/24 10:17:06;;;;;;;16.42;8.63;;;;;;;25.40;53.71;101462.62;2376932;72;51429;-74
2022/08/24 10:20:23;;;;;;;11.55;8.38;;;;;;;25.43;53.79;101460.02;2361605;74;51009;-75
2022/08/24 10:23:47;;;;;;;11.57;8.55;;;;;;;25.43;53.75;101458.66;2402282;74;50053;-73
2022/08/24 10:27:07;;;;;;;12.23;8.43;;;;;;;25.44;53.83;101452.22;2401732;74;51610;-72
2022/08/24 10:30:25;;;;;;;10.68;8.60;;;;;;;25.45;53.81;101463.36;2389085;74;49671;-75
2022/08/24 10:34:05;;;;;;;15.00;9.33;;;;;;;25.46;53.79;101451.50;2402214;74;51463;-72
2022/08/24 10:37:20;;;;;;;14.13;9.70;;;;;;;25.47;53.76;101459.09;2400087;74;51582;-72
2022/08/24 10:40:28;;;;;;;12.63;9.35;;;;;;;25.47;53.79;101456.39;2401859;74;50379;-75
2022/08/24 10:43:40;;;;;;;13.30;9.53;;;;;;;25.47;53.76;101459.09;2402149;74;51497;-75
2022/08/24 10:46:51;;;;;;;17.45;9.93;;;;;;;25.48;53.84;101453.97;2398373;74;51549;-72
2022/08/24 10:50:08;;;;;;;12.50;10.95;;;;;;;25.47;53.81;101442.84;2369598;74;51525;-75
2022/08/24 10:53:25;;;;;;;14.68;10.38;;;;;;;25.45;53.88;101441.68;2370004;74;50202;-73
2022/08/24 10:56:36;;;;;;;16.67;10.75;;;;;;;25.47;53.90;101444.20;2316110;75;50134;-74
2022/08/24 10:59:59;;;;;;;16.17;11.05;;;;;;;25.47;53.88;101446.38;2370132;75;51492;-73
2022/08/24 11:03:11;;;;;;;17.48;11.08;;;;;;;25.45;53.96;101445.75;2370085;75;50504;-73
2022/08/24 11:06:17;;;;;;;16.62;11.18;;;;;;;25.44;53.94;101445.97;2342547;75;51679;-72
2022/08/24 11:09:19;;;;;;;15.98;10.28;;;;;;;25.46;53.91;101453.34;2369235;75;51547;-73
2022/08/24 11:12:41;;;;;;;16.75;10.70;;;;;;;25.45;53.93;101451.16;2369322;75;50416;-73
2022/08/24 11:15:59;;;;;;;14.25;11.55;;;;;;;25.45;53.90;101443.56;2369347;75;51598;-73
2022/08/24 11:19:04;;;;;;;17.05;11.28;;;;;;;25.46;53.99;101445.22;2378639;74;50498;-74
2022/08/24 11:22:27;;;;;;;17.90;12.18;;;;;;;25.46;53.95;101439.80;2374980;73;49655;-75
2022/08/24 11:25:34;;;;;;;16.60;11.38;;;;;;;25.48;54.00;101445.32;2391824;74;51572;-74
2022/08/24 11:28:41;;;;;;;18.35;11.43;;;;;;;25.46;53.94;101440.66;2357591;74;51464;-74
2022/08/24 11:31:44;;;;;;;19.57;12.15;;;;;;;25.48;53.89;101439.08;2362409;75;51523;-74
2022/08/24 11:34:46;;;;;;;16.65;11.65;;;;;;;25.47;53.91;101437.42;2337419;75;51644;-74
2022/08/24 11:37:50;;;;;;;15.55;11.50;;;;;;;25.48;53.95;101433.66;2303678;75;52556;-74
2022/08/24 11:41:16;;;;;;;18.52;12.00;;;;;;;25.49;53.93;101434.81;2328577;75;51483;-74
2022/08/24 11:44:42;;;;;;;16.40;11.22;;;;;;;25.49;53.92;101429.92;2353537;75;50475;-73
2022/08/24 11:48:09;;;;;;;16.27;11.12;;;;;;;25.52;53.91;101428.14;2365132;74;50980;-75
2022/08/24 11:51:29;;;;;;;13.98;11.10;;;;;;;25.51;53.91;101429.16;2365928;74;50393;-74
2022/08/24 11:54:47;;;;;;;15.30;10.82;;;;;;;25.50;53.86;101419.38;2362803;74;50720;-75
2022/08/24 11:58:10;;;;;;;13.80;10.65;;;;;;;25.49;53.86;101425.86;2362169;74;51594;-74
2022/08/24 12:01:22;;;;;;;17.00;11.57;;;;;;;25.48;53.82;101422.81;2399939;74;50503;-74
2022/08/24 12:04:45;;;;;;;14.33;10.43;;;;;;;25.49;53.83;101419.91;2377969;74;49542;-74
2022/08/24 12:07:56;;;;;;;15.20;10.40;;;;;;;25.49;53.81;101419.08;2364822;75;50566;-73
2022/08/24 12:11:22;;;;;;;13.78;10.48;;;;;;;25.49;53.80;101417.20;2365083;75;50364;-74
2022/08/24 12:14:28;;;;;;;14.07;10.98;;;;;;;25.48;53.83;101414.69;2364678;75;51493;-74
2022/08/24 12:17:51;;;;;;;14.30;10.40;;;;;;;25.45;53.84;101414.59;2363824;74;51591;-73
2022/08/24 12:20:54;;;;;;;18.70;10.32;;;;;;;25.48;53.76;101407.91;2366674;75;51512;-73
2022/08/24 12:24:02;;;;;;;15.05;10.63;;;;;;;25.49;53.79;101416.37;2365206;73;51442;-74
2022/08/24 12:27:14;;;;;;;16.77;10.43;;;;;;;25.48;53.71;101406.03;2364951;75;51539;-75
2022/08/24 12:30:16;;;;;;;15.90;10.00;;;;;;;25.50;53.67;101409.37;2334900;75;50069;-74
2022/08/24 12:33:18;;;;;;;11.40;9.98;;;;;;;25.52;53.58;101403.22;2359195;75;51684;-74
2022/08/24 12:36:46;;;;;;;14.25;9.90;;;;;;;25.54;53.51;101396.25;2358959;75;50284;-74
2022/08/24 12:39:54;;;;;;;11.78;9.73;;;;;;;25.54;53.52;101399.78;2332129;75;49738;-75
2022/08/24 12:43:07;;;;;;;17.00;10.25;;;;;;;25.47;53.79;101394.06;2335724;75;51495;-75
2022/08/24 12:46:09;;;;;;;15.78;9.93;;;;;;;25.47;53.88;101389.47;2386864;73;50316;-75
2022/08/24 12:49:20;;;;;;;13.72;9.73;;;;;;;25.47;53.97;101395.42;2387297;73;51514;-75
2022/08/24 12:52:38;;;;;;;12.85;9.73;;;;;;;25.43;54.09;101390.92;2401932;74;50276;-76
2022/08/24 12:55:52;;;;;;;10.98;9.25;;;;;;;25.48;53.74;101388.94;2375924;74;51826;-75
2022/08/24 12:59:00;;;;;;;16.23;9.58;;;;;;;25.48;53.71;101394.36;2401867;74;51581;-76
2022/08/24 13:02:06;;;;;;;14.98;9.58;;;;;;;25.51;53.58;101389.87;2396747;74;50424;-76
2022/08/24 13:05:14;;;;;;;15.35;9.83;;;;;;;25.50;53.73;101393.64;2349928;75;49600;-76
2022/08/24 13:08:36;;;;;;;14.05;9.58;;;;;;;25.46;53.98;101391.03;2362215;74;50358;-76
2022/08/24 13:11:39;;;;;;;12.60;9.05;;;;;;;25.45;54.05;101392.91;2362572;75;50644;-76
2022/08/24 13:14:41;;;;;;;16.42;9.63;;;;;;;25.49;53.97;101398.76;2362711;75;50531;-75
2022/08/24 13:17:43;;;;;;;18.27;8.85;;;;;;;25.48;54.18;101399.78;2372197;74;50449;-76
2022/08/24 13:20:49;;;;;;;20.12;8.98;;;;;;;25.47;54.19;101390.83;2372028;73;50774;-76
2022/08/24 13:23:54;;;;;;;12.90;9.08;;;;;;;25.51;54.15;101393.94;2412109;72;50285;-77
2022/08/24 13:27:02;;;;;;;17.92;9.60;;;;;;;25.52;54.14;101399.69;2337354;74;50759;-76
2022/08/24 13:30:07;;;;;;;14.63;9.13;;;;;;;25.50;54.38;101397.70;2377992;74;50427;-76
2022/08/24 13:33:10;;;;;;;14.43;10.15;;;;;;;25.48;54.34;101393.84;2404164;74;51556;-77
2022/08/24 13:36:44;;;;;;;12.03;9.03;;;;;;;25.49;54.24;101402.30;2403924;74;50186;-76
2022/08/24 13:40:06;;;;;;;13.60;8.75;;;;;;;25.49;54.25;101398.76;2404064;74;50419;-74
2022/08/24 13:43:17;;;;;;;12.55;8.68;;;;;;;25.51;54.01;101396.14;2404037;73;22055;-76
2022/08/24 13:46:42;;;;;;;9.93;8.20;;;;;;;25.55;53.85;101403.32;2378489;74;50092;-75
2022/08/24 13:50:06;;;;;;;10.58;8.68;;;;;;;25.49;53.99;101389.27;2407775;74;51563;-75
2022/08/24 13:53:40;;;;;;;15.83;8.73;;;;;;;25.50;53.94;101387.69;2407865;74;50829;-76
2022/08/24 13:56:45;;;;;;;11.95;8.90;;;;;;;25.51;53.97;101387.16;2377114;74;50716;-75
2022/08/24 14:00:03;;;;;;;10.18;8.35;;;;;;;25.52;53.95;101377.48;2403969;74;51418;-75
2022/08/24 14:03:25;;;;;;;13.30;8.75;;;;;;;25.55;53.87;101373.51;2402926;73;50733;-75
2022/08/24 14:06:59;;;;;;;12.60;8.30;;;;;;;25.56;53.85;101376.52;2380151;72;22972;-75
2022/08/24 14:10:30;;;;;;;15.18;8.90;;;;;;;25.59;53.78;101382.89;2400516;73;50756;-74
2022/08/24 14:13:51;;;;;;;11.88;8.80;;;;;;;25.57;53.82;101388.52;2383069;74;50140;-75
2022/08/24 14:20:42;;;;;;;11.22;8.30;;;;;;;25.56;53.73;101394.99;2404946;74;24342;-75
2022/08/24 14:24:03;;;;;;;12.80;8.45;;;;;;;25.54;53.74;101379.98;2378418;74;51005;-77
2022/08/24 14:27:08;;;;;;;15.25;8.33;;;;;;;25.54;53.67;101384.88;2381303;72;50739;-75
2022/08/24 14:30:22;;;;;;;14.53;8.65;;;;;;;25.56;53.61;101388.71;2365253;74;50747;-75
2022/08/24 14:33:27;;;;;;;12.05;9.05;;;;;;;25.52;53.76;101388.84;2367620;74;50874;-76
2022/08/24 14:36:48;;;;;;;11.35;8.48;;;;;;;25.53;53.76;101390.50;2364308;74;51929;-77